sensor_id;sensor_type;location;lat;lon;timestamp;temperature;humidity
66373;SHT30;53168;51.146;17.120;2023-12-20T00:00:58;6.76;78.19
66373;SHT30;53168;51.146;17.120;2023-12-20T00:03:42;6.76;78.18
66373;SHT30;53168;51.146;17.120;2023-12-20T00:06:16;6.76;78.13
66373;SHT30;53168;51.146;17.120;2023-12-20T00:08:50;6.78;78.25
66373;SHT30;53168;51.146;17.120;2023-12-20T00:11:24;6.79;78.21
66373;SHT30;53168;51.146;17.120;2023-12-20T00:13:58;6.80;78.26
66373;SHT30;53168;51.146;17.120;2023-12-20T00:16:32;6.80;78.40
66373;SHT30;53168;51.146;17.120;2023-12-20T00:19:05;6.80;78.42
66373;SHT30;53168;51.146;17.120;2023-12-20T00:21:39;6.78;78.26
66373;SHT30;53168;51.146;17.120;2023-12-20T00:24:13;6.77;78.25
66373;SHT30;53168;51.146;17.120;2023-12-20T00:26:47;6.75;78.42
66373;SHT30;53168;51.146;17.120;2023-12-20T00:29:21;6.73;78.49
66373;SHT30;53168;51.146;17.120;2023-12-20T00:31:55;6.71;78.50
66373;SHT30;53168;51.146;17.120;2023-12-20T00:34:28;6.70;78.67
66373;SHT30;53168;51.146;17.120;2023-12-20T00:37:02;6.68;78.79
66373;SHT30;53168;51.146;17.120;2023-12-20T00:39:36;6.66;78.85
66373;SHT30;53168;51.146;17.120;2023-12-20T00:42:10;6.65;78.83
66373;SHT30;53168;51.146;17.120;2023-12-20T00:44:44;6.63;79.14
66373;SHT30;53168;51.146;17.120;2023-12-20T00:47:18;6.62;79.26
66373;SHT30;53168;51.146;17.120;2023-12-20T00:49:53;6.62;79.25
66373;SHT30;53168;51.146;17.120;2023-12-20T00:52:26;6.61;79.21
66373;SHT30;53168;51.146;17.120;2023-12-20T00:55:00;6.59;79.19
66373;SHT30;53168;51.146;17.120;2023-12-20T00:57:35;6.59;79.22
66373;SHT30;53168;51.146;17.120;2023-12-20T01:00:11;6.59;79.34
66373;SHT30;53168;51.146;17.120;2023-12-20T01:02:45;6.59;79.44
66373;SHT30;53168;51.146;17.120;2023-12-20T01:05:20;6.60;79.47
66373;SHT30;53168;51.146;17.120;2023-12-20T01:07:54;6.59;79.51
66373;SHT30;53168;51.146;17.120;2023-12-20T01:10:28;6.59;79.57
66373;SHT30;53168;51.146;17.120;2023-12-20T01:13:02;6.59;79.66
66373;SHT30;53168;51.146;17.120;2023-12-20T01:15:35;6.60;79.78
66373;SHT30;53168;51.146;17.120;2023-12-20T01:18:09;6.58;79.74
66373;SHT30;53168;51.146;17.120;2023-12-20T01:20:43;6.58;79.88
66373;SHT30;53168;51.146;17.120;2023-12-20T01:23:17;6.58;80.03
66373;SHT30;53168;51.146;17.120;2023-12-20T01:25:50;6.58;80.09
66373;SHT30;53168;51.146;17.120;2023-12-20T01:28:24;6.59;80.30
66373;SHT30;53168;51.146;17.120;2023-12-20T01:30:58;6.59;80.36
66373;SHT30;53168;51.146;17.120;2023-12-20T01:33:32;6.60;80.31
66373;SHT30;53168;51.146;17.120;2023-12-20T01:36:07;6.61;80.49
66373;SHT30;53168;51.146;17.120;2023-12-20T01:38:40;6.62;80.61
66373;SHT30;53168;51.146;17.120;2023-12-20T01:41:14;6.63;80.63
66373;SHT30;53168;51.146;17.120;2023-12-20T01:43:48;6.63;80.70
66373;SHT30;53168;51.146;17.120;2023-12-20T01:46:24;6.63;80.71
66373;SHT30;53168;51.146;17.120;2023-12-20T01:48:59;6.63;80.80
66373;SHT30;53168;51.146;17.120;2023-12-20T01:51:33;6.61;80.79
66373;SHT30;53168;51.146;17.120;2023-12-20T01:54:09;6.61;80.80
66373;SHT30;53168;51.146;17.120;2023-12-20T01:56:44;6.59;80.80
66373;SHT30;53168;51.146;17.120;2023-12-20T01:59:22;6.59;80.84
66373;SHT30;53168;51.146;17.120;2023-12-20T02:01:56;6.59;80.98
66373;SHT30;53168;51.146;17.120;2023-12-20T02:04:31;6.59;81.03
66373;SHT30;53168;51.146;17.120;2023-12-20T02:07:06;6.58;81.01
66373;SHT30;53168;51.146;17.120;2023-12-20T02:09:41;6.59;81.14
66373;SHT30;53168;51.146;17.120;2023-12-20T02:12:14;6.58;81.13
66373;SHT30;53168;51.146;17.120;2023-12-20T02:14:51;6.58;81.08
66373;SHT30;53168;51.146;17.120;2023-12-20T02:17:26;6.57;81.04
66373;SHT30;53168;51.146;17.120;2023-12-20T02:20:01;6.56;81.07
66373;SHT30;53168;51.146;17.120;2023-12-20T02:22:36;6.55;81.18
66373;SHT30;53168;51.146;17.120;2023-12-20T02:25:10;6.55;81.13
66373;SHT30;53168;51.146;17.120;2023-12-20T02:27:44;6.55;81.21
66373;SHT30;53168;51.146;17.120;2023-12-20T02:30:19;6.54;81.12
66373;SHT30;53168;51.146;17.120;2023-12-20T02:32:53;6.52;81.00
66373;SHT30;53168;51.146;17.120;2023-12-20T02:35:28;6.50;80.97
66373;SHT30;53168;51.146;17.120;2023-12-20T02:38:01;6.49;80.95
66373;SHT30;53168;51.146;17.120;2023-12-20T02:40:35;6.47;81.00
66373;SHT30;53168;51.146;17.120;2023-12-20T02:43:09;6.44;81.05
66373;SHT30;53168;51.146;17.120;2023-12-20T02:56:12;6.34;81.00
66373;SHT30;53168;51.146;17.120;2023-12-20T02:58:46;6.30;81.04
66373;SHT30;53168;51.146;17.120;2023-12-20T03:01:20;6.28;81.05
66373;SHT30;53168;51.146;17.120;2023-12-20T03:03:54;6.25;81.10
66373;SHT30;53168;51.146;17.120;2023-12-20T03:06:27;6.24;81.17
66373;SHT30;53168;51.146;17.120;2023-12-20T03:09:02;6.22;81.27
66373;SHT30;53168;51.146;17.120;2023-12-20T03:11:36;6.20;81.26
66373;SHT30;53168;51.146;17.120;2023-12-20T03:14:09;6.20;81.32
66373;SHT30;53168;51.146;17.120;2023-12-20T03:16:55;6.17;81.33
66373;SHT30;53168;51.146;17.120;2023-12-20T03:19:30;6.16;81.40
66373;SHT30;53168;51.146;17.120;2023-12-20T03:22:04;6.14;81.49
66373;SHT30;53168;51.146;17.120;2023-12-20T03:24:38;6.12;81.59
66373;SHT30;53168;51.146;17.120;2023-12-20T03:27:11;6.11;81.60
66373;SHT30;53168;51.146;17.120;2023-12-20T03:29:45;6.09;81.66
66373;SHT30;53168;51.146;17.120;2023-12-20T03:32:18;6.09;81.70
66373;SHT30;53168;51.146;17.120;2023-12-20T03:34:52;6.06;81.69
66373;SHT30;53168;51.146;17.120;2023-12-20T03:37:26;6.04;81.71
66373;SHT30;53168;51.146;17.120;2023-12-20T03:40:00;6.04;81.77
66373;SHT30;53168;51.146;17.120;2023-12-20T03:42:34;6.01;81.79
66373;SHT30;53168;51.146;17.120;2023-12-20T03:45:10;5.98;81.88
66373;SHT30;53168;51.146;17.120;2023-12-20T03:47:44;5.96;81.91
66373;SHT30;53168;51.146;17.120;2023-12-20T03:50:19;5.94;81.90
66373;SHT30;53168;51.146;17.120;2023-12-20T03:52:54;5.92;81.89
66373;SHT30;53168;51.146;17.120;2023-12-20T03:55:32;5.90;81.87
66373;SHT30;53168;51.146;17.120;2023-12-20T03:58:05;5.91;81.82
66373;SHT30;53168;51.146;17.120;2023-12-20T04:00:39;5.89;81.83
66373;SHT30;53168;51.146;17.120;2023-12-20T04:03:13;5.88;81.88
66373;SHT30;53168;51.146;17.120;2023-12-20T04:05:47;5.85;81.88
66373;SHT30;53168;51.146;17.120;2023-12-20T04:08:21;5.83;81.83
66373;SHT30;53168;51.146;17.120;2023-12-20T04:10:55;5.80;81.94
66373;SHT30;53168;51.146;17.120;2023-12-20T04:13:29;5.78;82.02
66373;SHT30;53168;51.146;17.120;2023-12-20T04:16:02;5.75;82.00
66373;SHT30;53168;51.146;17.120;2023-12-20T04:18:37;5.74;82.02
66373;SHT30;53168;51.146;17.120;2023-12-20T04:21:10;5.73;82.09
66373;SHT30;53168;51.146;17.120;2023-12-20T04:23:44;5.72;82.09
66373;SHT30;53168;51.146;17.120;2023-12-20T04:26:18;5.72;82.17
66373;SHT30;53168;51.146;17.120;2023-12-20T04:28:53;5.70;82.21
66373;SHT30;53168;51.146;17.120;2023-12-20T04:31:27;5.69;82.28
66373;SHT30;53168;51.146;17.120;2023-12-20T04:34:01;5.66;82.33
66373;SHT30;53168;51.146;17.120;2023-12-20T04:36:35;5.65;82.39
66373;SHT30;53168;51.146;17.120;2023-12-20T04:39:09;5.63;82.39
66373;SHT30;53168;51.146;17.120;2023-12-20T04:41:43;5.62;82.47
66373;SHT30;53168;51.146;17.120;2023-12-20T04:44:18;5.60;82.60
66373;SHT30;53168;51.146;17.120;2023-12-20T04:46:52;5.59;82.61
66373;SHT30;53168;51.146;17.120;2023-12-20T04:49:28;5.57;82.61
66373;SHT30;53168;51.146;17.120;2023-12-20T04:52:02;5.55;82.60
66373;SHT30;53168;51.146;17.120;2023-12-20T04:54:37;5.54;82.60
66373;SHT30;53168;51.146;17.120;2023-12-20T04:57:14;5.52;82.64
66373;SHT30;53168;51.146;17.120;2023-12-20T04:59:48;5.52;82.56
66373;SHT30;53168;51.146;17.120;2023-12-20T05:02:21;5.49;82.55
66373;SHT30;53168;51.146;17.120;2023-12-20T05:04:55;5.48;82.59
66373;SHT30;53168;51.146;17.120;2023-12-20T05:07:29;5.49;82.61
66373;SHT30;53168;51.146;17.120;2023-12-20T05:10:04;5.48;82.65
66373;SHT30;53168;51.146;17.120;2023-12-20T05:12:39;5.47;82.63
66373;SHT30;53168;51.146;17.120;2023-12-20T05:15:13;5.48;82.72
66373;SHT30;53168;51.146;17.120;2023-12-20T05:17:47;5.47;82.78
66373;SHT30;53168;51.146;17.120;2023-12-20T05:20:21;5.47;82.80
66373;SHT30;53168;51.146;17.120;2023-12-20T05:22:55;5.47;82.81
66373;SHT30;53168;51.146;17.120;2023-12-20T05:25:29;5.47;82.81
66373;SHT30;53168;51.146;17.120;2023-12-20T05:28:03;5.47;82.84
66373;SHT30;53168;51.146;17.120;2023-12-20T05:30:38;5.47;82.90
66373;SHT30;53168;51.146;17.120;2023-12-20T05:33:13;5.46;82.91
66373;SHT30;53168;51.146;17.120;2023-12-20T05:35:47;5.46;82.97
66373;SHT30;53168;51.146;17.120;2023-12-20T05:38:20;5.45;83.00
66373;SHT30;53168;51.146;17.120;2023-12-20T05:40:54;5.45;83.12
66373;SHT30;53168;51.146;17.120;2023-12-20T05:43:28;5.45;83.16
66373;SHT30;53168;51.146;17.120;2023-12-20T05:46:02;5.43;83.17
66373;SHT30;53168;51.146;17.120;2023-12-20T05:48:35;5.44;83.16
66373;SHT30;53168;51.146;17.120;2023-12-20T05:51:12;5.43;83.13
66373;SHT30;53168;51.146;17.120;2023-12-20T05:53:47;5.43;83.17
66373;SHT30;53168;51.146;17.120;2023-12-20T05:56:21;5.42;83.20
66373;SHT30;53168;51.146;17.120;2023-12-20T05:58:55;5.41;83.20
66373;SHT30;53168;51.146;17.120;2023-12-20T06:01:29;5.42;83.35
66373;SHT30;53168;51.146;17.120;2023-12-20T06:04:03;5.41;83.37
66373;SHT30;53168;51.146;17.120;2023-12-20T06:06:44;5.40;83.40
66373;SHT30;53168;51.146;17.120;2023-12-20T06:09:18;5.41;83.41
66373;SHT30;53168;51.146;17.120;2023-12-20T06:11:53;5.41;83.42
66373;SHT30;53168;51.146;17.120;2023-12-20T06:14:26;5.41;83.44
66373;SHT30;53168;51.146;17.120;2023-12-20T06:17:02;5.42;83.50
66373;SHT30;53168;51.146;17.120;2023-12-20T06:19:36;5.41;83.51
66373;SHT30;53168;51.146;17.120;2023-12-20T06:22:10;5.41;83.56
66373;SHT30;53168;51.146;17.120;2023-12-20T06:24:44;5.41;83.60
66373;SHT30;53168;51.146;17.120;2023-12-20T06:27:18;5.42;83.62
66373;SHT30;53168;51.146;17.120;2023-12-20T06:29:52;5.42;83.67
66373;SHT30;53168;51.146;17.120;2023-12-20T06:32:26;5.42;83.70
66373;SHT30;53168;51.146;17.120;2023-12-20T06:35:01;5.43;83.76
66373;SHT30;53168;51.146;17.120;2023-12-20T06:37:36;5.41;83.71
66373;SHT30;53168;51.146;17.120;2023-12-20T06:40:14;5.43;83.71
66373;SHT30;53168;51.146;17.120;2023-12-20T06:42:48;5.43;83.69
66373;SHT30;53168;51.146;17.120;2023-12-20T06:45:36;5.42;83.66
66373;SHT30;53168;51.146;17.120;2023-12-20T06:48:10;5.42;83.60
66373;SHT30;53168;51.146;17.120;2023-12-20T06:50:45;5.43;83.57
66373;SHT30;53168;51.146;17.120;2023-12-20T06:53:18;5.41;83.53
66373;SHT30;53168;51.146;17.120;2023-12-20T06:55:52;5.43;83.50
66373;SHT30;53168;51.146;17.120;2023-12-20T06:58:27;5.42;83.50
66373;SHT30;53168;51.146;17.120;2023-12-20T07:01:02;5.42;83.51
66373;SHT30;53168;51.146;17.120;2023-12-20T07:03:36;5.41;83.57
66373;SHT30;53168;51.146;17.120;2023-12-20T07:06:10;5.41;83.57
66373;SHT30;53168;51.146;17.120;2023-12-20T07:08:46;5.40;83.59
66373;SHT30;53168;51.146;17.120;2023-12-20T07:11:20;5.39;83.64
66373;SHT30;53168;51.146;17.120;2023-12-20T07:13:55;5.37;83.65
66373;SHT30;53168;51.146;17.120;2023-12-20T07:16:32;5.39;83.76
66373;SHT30;53168;51.146;17.120;2023-12-20T07:19:08;5.40;83.71
66373;SHT30;53168;51.146;17.120;2023-12-20T07:21:43;5.39;83.69
66373;SHT30;53168;51.146;17.120;2023-12-20T07:24:18;5.38;83.76
66373;SHT30;53168;51.146;17.120;2023-12-20T07:26:51;5.37;83.71
66373;SHT30;53168;51.146;17.120;2023-12-20T07:29:25;5.35;83.70
66373;SHT30;53168;51.146;17.120;2023-12-20T07:31:59;5.36;83.73
66373;SHT30;53168;51.146;17.120;2023-12-20T07:34:34;5.36;83.80
66373;SHT30;53168;51.146;17.120;2023-12-20T07:37:34;5.35;83.80
66373;SHT30;53168;51.146;17.120;2023-12-20T07:40:14;5.36;83.80
66373;SHT30;53168;51.146;17.120;2023-12-20T07:42:50;5.38;83.80
66373;SHT30;53168;51.146;17.120;2023-12-20T07:45:30;5.40;83.79
66373;SHT30;53168;51.146;17.120;2023-12-20T07:48:05;5.40;83.73
66373;SHT30;53168;51.146;17.120;2023-12-20T07:50:45;5.41;83.70
66373;SHT30;53168;51.146;17.120;2023-12-20T07:53:24;5.41;83.70
66373;SHT30;53168;51.146;17.120;2023-12-20T07:56:04;5.40;83.69
66373;SHT30;53168;51.146;17.120;2023-12-20T07:58:48;5.40;83.70
66373;SHT30;53168;51.146;17.120;2023-12-20T08:01:24;5.39;83.74
66373;SHT30;53168;51.146;17.120;2023-12-20T08:03:58;5.39;83.75
66373;SHT30;53168;51.146;17.120;2023-12-20T08:06:38;5.38;83.78
66373;SHT30;53168;51.146;17.120;2023-12-20T08:09:22;5.36;83.78
66373;SHT30;53168;51.146;17.120;2023-12-20T08:12:07;5.37;83.80
66373;SHT30;53168;51.146;17.120;2023-12-20T08:14:47;5.38;83.80
66373;SHT30;53168;51.146;17.120;2023-12-20T08:17:28;5.38;83.80
66373;SHT30;53168;51.146;17.120;2023-12-20T08:20:13;5.40;83.83
66373;SHT30;53168;51.146;17.120;2023-12-20T08:23:15;5.41;83.78
66373;SHT30;53168;51.146;17.120;2023-12-20T08:26:05;5.41;83.72
66373;SHT30;53168;51.146;17.120;2023-12-20T08:28:40;5.45;83.78
66373;SHT30;53168;51.146;17.120;2023-12-20T08:31:17;5.45;83.71
66373;SHT30;53168;51.146;17.120;2023-12-20T08:33:54;5.45;83.70
66373;SHT30;53168;51.146;17.120;2023-12-20T08:36:29;5.43;83.69
66373;SHT30;53168;51.146;17.120;2023-12-20T08:39:06;5.43;83.70
66373;SHT30;53168;51.146;17.120;2023-12-20T08:41:43;5.44;83.66
66373;SHT30;53168;51.146;17.120;2023-12-20T08:44:48;5.44;83.63
66373;SHT30;53168;51.146;17.120;2023-12-20T08:47:44;5.44;83.61
66373;SHT30;53168;51.146;17.120;2023-12-20T08:50:52;5.43;83.64
66373;SHT30;53168;51.146;17.120;2023-12-20T08:57:53;5.45;83.61
66373;SHT30;53168;51.146;17.120;2023-12-20T09:01:12;5.45;83.62
66373;SHT30;53168;51.146;17.120;2023-12-20T09:03:56;5.48;83.65
66373;SHT30;53168;51.146;17.120;2023-12-20T09:06:36;5.48;83.60
66373;SHT30;53168;51.146;17.120;2023-12-20T09:09:19;5.49;83.60
66373;SHT30;53168;51.146;17.120;2023-12-20T09:15:44;5.53;83.59
66373;SHT30;53168;51.146;17.120;2023-12-20T09:18:48;5.52;83.57
66373;SHT30;53168;51.146;17.120;2023-12-20T09:21:27;5.53;83.58
66373;SHT30;53168;51.146;17.120;2023-12-20T09:24:03;5.52;83.57
66373;SHT30;53168;51.146;17.120;2023-12-20T09:26:39;5.52;83.54
66373;SHT30;53168;51.146;17.120;2023-12-20T09:29:15;5.54;83.50
66373;SHT30;53168;51.146;17.120;2023-12-20T09:31:49;5.56;83.57
66373;SHT30;53168;51.146;17.120;2023-12-20T09:34:24;5.56;83.50
66373;SHT30;53168;51.146;17.120;2023-12-20T09:36:58;5.57;83.48
66373;SHT30;53168;51.146;17.120;2023-12-20T09:39:31;5.58;83.49
66373;SHT30;53168;51.146;17.120;2023-12-20T09:42:07;5.60;83.50
66373;SHT30;53168;51.146;17.120;2023-12-20T09:44:44;5.63;83.48
66373;SHT30;53168;51.146;17.120;2023-12-20T09:47:21;5.66;83.48
66373;SHT30;53168;51.146;17.120;2023-12-20T09:49:57;5.68;83.43
66373;SHT30;53168;51.146;17.120;2023-12-20T09:52:32;5.68;83.40
66373;SHT30;53168;51.146;17.120;2023-12-20T09:55:09;5.70;83.30
66373;SHT30;53168;51.146;17.120;2023-12-20T09:57:42;5.74;83.21
66373;SHT30;53168;51.146;17.120;2023-12-20T10:00:18;5.77;83.21
66373;SHT30;53168;51.146;17.120;2023-12-20T10:02:58;5.78;83.10
66373;SHT30;53168;51.146;17.120;2023-12-20T10:05:34;5.82;83.11
66373;SHT30;53168;51.146;17.120;2023-12-20T10:08:09;5.84;83.02
66373;SHT30;53168;51.146;17.120;2023-12-20T10:10:42;5.86;82.99
66373;SHT30;53168;51.146;17.120;2023-12-20T10:13:18;5.86;82.91
66373;SHT30;53168;51.146;17.120;2023-12-20T10:15:54;5.86;82.87
66373;SHT30;53168;51.146;17.120;2023-12-20T10:18:30;5.86;82.80
66373;SHT30;53168;51.146;17.120;2023-12-20T10:21:09;5.88;82.75
66373;SHT30;53168;51.146;17.120;2023-12-20T10:23:44;5.88;82.71
66373;SHT30;53168;51.146;17.120;2023-12-20T10:26:23;5.88;82.68
66373;SHT30;53168;51.146;17.120;2023-12-20T10:29:02;5.89;82.61
66373;SHT30;53168;51.146;17.120;2023-12-20T10:31:37;5.91;82.60
66373;SHT30;53168;51.146;17.120;2023-12-20T10:34:24;5.94;82.49
66373;SHT30;53168;51.146;17.120;2023-12-20T10:37:23;5.97;81.97
66373;SHT30;53168;51.146;17.120;2023-12-20T10:40:32;6.05;81.71
66373;SHT30;53168;51.146;17.120;2023-12-20T10:43:10;6.22;81.53
66373;SHT30;53168;51.146;17.120;2023-12-20T10:46:03;6.35;81.29
66373;SHT30;53168;51.146;17.120;2023-12-20T10:49:18;6.32;81.03
66373;SHT30;53168;51.146;17.120;2023-12-20T10:52:14;6.30;81.08
66373;SHT30;53168;51.146;17.120;2023-12-20T10:54:52;6.29;80.98
66373;SHT30;53168;51.146;17.120;2023-12-20T10:58:06;6.32;80.87
66373;SHT30;53168;51.146;17.120;2023-12-20T11:01:01;6.42;80.37
66373;SHT30;53168;51.146;17.120;2023-12-20T11:03:50;6.61;80.14
66373;SHT30;53168;51.146;17.120;2023-12-20T11:09:53;6.92;79.62
66373;SHT30;53168;51.146;17.120;2023-12-20T11:12:54;7.00;79.48
66373;SHT30;53168;51.146;17.120;2023-12-20T11:15:46;7.10;79.37
66373;SHT30;53168;51.146;17.120;2023-12-20T11:18:31;7.09;79.09
66373;SHT30;53168;51.146;17.120;2023-12-20T11:21:15;7.16;78.55
66373;SHT30;53168;51.146;17.120;2023-12-20T11:23:51;7.29;78.75
66373;SHT30;53168;51.146;17.120;2023-12-20T11:26:28;7.62;78.48
66373;SHT30;53168;51.146;17.120;2023-12-20T11:29:31;8.09;77.72
66373;SHT30;53168;51.146;17.120;2023-12-20T11:32:30;8.59;76.74
66373;SHT30;53168;51.146;17.120;2023-12-20T11:35:20;8.49;76.20
66373;SHT30;53168;51.146;17.120;2023-12-20T11:37:55;8.22;75.55
66373;SHT30;53168;51.146;17.120;2023-12-20T11:40:35;8.00;75.93
66373;SHT30;53168;51.146;17.120;2023-12-20T11:43:09;7.82;76.07
66373;SHT30;53168;51.146;17.120;2023-12-20T11:45:50;7.70;76.09
66373;SHT30;53168;51.146;17.120;2023-12-20T11:48:25;7.62;76.55
66373;SHT30;53168;51.146;17.120;2023-12-20T11:51:00;7.67;76.46
66373;SHT30;53168;51.146;17.120;2023-12-20T11:53:34;7.71;76.59
66373;SHT30;53168;51.146;17.120;2023-12-20T11:56:09;7.74;75.89
66373;SHT30;53168;51.146;17.120;2023-12-20T11:58:44;7.75;75.34
66373;SHT30;53168;51.146;17.120;2023-12-20T12:01:22;7.83;75.72
66373;SHT30;53168;51.146;17.120;2023-12-20T12:04:05;8.00;74.83
66373;SHT30;53168;51.146;17.120;2023-12-20T12:06:39;8.28;73.67
66373;SHT30;53168;51.146;17.120;2023-12-20T12:09:14;8.31;73.89
66373;SHT30;53168;51.146;17.120;2023-12-20T12:11:49;8.08;74.26
66373;SHT30;53168;51.146;17.120;2023-12-20T12:14:23;7.89;74.09
66373;SHT30;53168;51.146;17.120;2023-12-20T12:16:58;7.74;74.29
66373;SHT30;53168;51.146;17.120;2023-12-20T12:19:42;7.60;74.53
66373;SHT30;53168;51.146;17.120;2023-12-20T12:22:19;7.49;74.94
66373;SHT30;53168;51.146;17.120;2023-12-20T12:25:09;7.42;74.85
66373;SHT30;53168;51.146;17.120;2023-12-20T12:27:44;7.34;74.84
66373;SHT30;53168;51.146;17.120;2023-12-20T12:30:20;7.30;74.75
66373;SHT30;53168;51.146;17.120;2023-12-20T12:32:55;7.26;75.07
66373;SHT30;53168;51.146;17.120;2023-12-20T12:35:30;7.22;74.83
66373;SHT30;53168;51.146;17.120;2023-12-20T12:38:09;7.19;74.86
66373;SHT30;53168;51.146;17.120;2023-12-20T12:40:44;7.16;74.95
66373;SHT30;53168;51.146;17.120;2023-12-20T12:43:19;7.15;75.07
66373;SHT30;53168;51.146;17.120;2023-12-20T12:45:54;7.13;75.16
66373;SHT30;53168;51.146;17.120;2023-12-20T12:48:28;7.12;74.88
66373;SHT30;53168;51.146;17.120;2023-12-20T12:51:02;7.12;74.67
66373;SHT30;53168;51.146;17.120;2023-12-20T12:53:38;7.12;74.72
66373;SHT30;53168;51.146;17.120;2023-12-20T12:56:14;7.11;74.35
66373;SHT30;53168;51.146;17.120;2023-12-20T12:58:48;7.13;74.19
66373;SHT30;53168;51.146;17.120;2023-12-20T13:01:22;7.11;74.29
66373;SHT30;53168;51.146;17.120;2023-12-20T13:03:57;7.11;74.24
66373;SHT30;53168;51.146;17.120;2023-12-20T13:06:38;7.13;74.43
66373;SHT30;53168;51.146;17.120;2023-12-20T13:09:13;7.17;74.22
66373;SHT30;53168;51.146;17.120;2023-12-20T13:11:47;7.50;73.63
66373;SHT30;53168;51.146;17.120;2023-12-20T13:14:21;7.76;73.20
66373;SHT30;53168;51.146;17.120;2023-12-20T13:16:54;8.09;72.52
66373;SHT30;53168;51.146;17.120;2023-12-20T13:19:28;8.44;72.05
66373;SHT30;53168;51.146;17.120;2023-12-20T13:22:04;8.34;71.72
66373;SHT30;53168;51.146;17.120;2023-12-20T13:24:39;8.03;71.93
66373;SHT30;53168;51.146;17.120;2023-12-20T13:27:15;7.79;72.08
66373;SHT30;53168;51.146;17.120;2023-12-20T13:29:49;7.61;72.10
66373;SHT30;53168;51.146;17.120;2023-12-20T13:32:23;7.47;72.59
66373;SHT30;53168;51.146;17.120;2023-12-20T13:34:57;7.36;72.64
66373;SHT30;53168;51.146;17.120;2023-12-20T13:37:31;7.28;72.88
66373;SHT30;53168;51.146;17.120;2023-12-20T13:40:06;7.22;73.02
66373;SHT30;53168;51.146;17.120;2023-12-20T13:42:41;7.12;73.11
66373;SHT30;53168;51.146;17.120;2023-12-20T13:45:16;7.02;73.09
66373;SHT30;53168;51.146;17.120;2023-12-20T13:47:50;6.93;73.03
66373;SHT30;53168;51.146;17.120;2023-12-20T13:50:24;6.88;73.08
66373;SHT30;53168;51.146;17.120;2023-12-20T13:52:58;6.84;73.10
66373;SHT30;53168;51.146;17.120;2023-12-20T13:55:35;6.84;73.22
66373;SHT30;53168;51.146;17.120;2023-12-20T13:58:08;6.83;73.11
66373;SHT30;53168;51.146;17.120;2023-12-20T14:00:42;6.86;73.14
66373;SHT30;53168;51.146;17.120;2023-12-20T14:03:17;6.87;73.13
66373;SHT30;53168;51.146;17.120;2023-12-20T14:05:52;6.89;72.98
66373;SHT30;53168;51.146;17.120;2023-12-20T14:08:25;6.92;72.77
66373;SHT30;53168;51.146;17.120;2023-12-20T14:10:59;6.94;72.69
66373;SHT30;53168;51.146;17.120;2023-12-20T14:13:33;6.95;72.59
66373;SHT30;53168;51.146;17.120;2023-12-20T14:16:09;6.96;72.57
66373;SHT30;53168;51.146;17.120;2023-12-20T14:18:43;6.98;72.27
66373;SHT30;53168;51.146;17.120;2023-12-20T14:21:18;7.03;72.13
66373;SHT30;53168;51.146;17.120;2023-12-20T14:23:52;7.02;72.37
66373;SHT30;53168;51.146;17.120;2023-12-20T14:26:25;7.01;72.39
66373;SHT30;53168;51.146;17.120;2023-12-20T14:28:59;7.01;72.13
66373;SHT30;53168;51.146;17.120;2023-12-20T14:31:35;7.03;72.11
66373;SHT30;53168;51.146;17.120;2023-12-20T14:34:13;7.03;71.97
66373;SHT30;53168;51.146;17.120;2023-12-20T14:36:47;7.03;71.81
66373;SHT30;53168;51.146;17.120;2023-12-20T14:39:21;7.01;71.72
66373;SHT30;53168;51.146;17.120;2023-12-20T14:41:55;7.01;71.65
66373;SHT30;53168;51.146;17.120;2023-12-20T14:44:29;7.00;71.49
66373;SHT30;53168;51.146;17.120;2023-12-20T14:47:03;7.00;71.51
66373;SHT30;53168;51.146;17.120;2023-12-20T14:49:37;6.98;71.24
66373;SHT30;53168;51.146;17.120;2023-12-20T14:52:10;7.01;70.68
66373;SHT30;53168;51.146;17.120;2023-12-20T14:54:44;7.03;70.75
66373;SHT30;53168;51.146;17.120;2023-12-20T14:57:18;7.04;70.45
66373;SHT30;53168;51.146;17.120;2023-12-20T14:59:52;7.05;69.93
66373;SHT30;53168;51.146;17.120;2023-12-20T15:02:27;7.07;70.27
66373;SHT30;53168;51.146;17.120;2023-12-20T15:05:14;7.04;70.24
66373;SHT30;53168;51.146;17.120;2023-12-20T15:07:50;7.06;69.76
66373;SHT30;53168;51.146;17.120;2023-12-20T15:10:31;7.09;69.84
66373;SHT30;53168;51.146;17.120;2023-12-20T15:13:13;7.08;69.80
66373;SHT30;53168;51.146;17.120;2023-12-20T15:15:48;7.08;69.91
66373;SHT30;53168;51.146;17.120;2023-12-20T15:18:22;7.08;69.83
66373;SHT30;53168;51.146;17.120;2023-12-20T15:20:56;7.07;69.80
66373;SHT30;53168;51.146;17.120;2023-12-20T15:23:30;7.05;69.94
66373;SHT30;53168;51.146;17.120;2023-12-20T15:26:04;7.04;69.83
66373;SHT30;53168;51.146;17.120;2023-12-20T15:31:23;7.04;69.20
66373;SHT30;53168;51.146;17.120;2023-12-20T15:33:58;7.02;69.44
66373;SHT30;53168;51.146;17.120;2023-12-20T15:36:32;6.98;69.28
66373;SHT30;53168;51.146;17.120;2023-12-20T15:39:07;6.92;69.32
66373;SHT30;53168;51.146;17.120;2023-12-20T15:41:45;6.82;69.54
66373;SHT30;53168;51.146;17.120;2023-12-20T15:44:20;6.72;69.62
66373;SHT30;53168;51.146;17.120;2023-12-20T15:46:54;6.65;69.39
66373;SHT30;53168;51.146;17.120;2023-12-20T15:49:28;6.62;69.37
66373;SHT30;53168;51.146;17.120;2023-12-20T15:52:02;6.64;69.24
66373;SHT30;53168;51.146;17.120;2023-12-20T15:54:37;6.67;69.07
66373;SHT30;53168;51.146;17.120;2023-12-20T15:57:12;6.70;69.17
66373;SHT30;53168;51.146;17.120;2023-12-20T15:59:49;6.73;68.91
66373;SHT30;53168;51.146;17.120;2023-12-20T16:02:23;6.72;69.08
66373;SHT30;53168;51.146;17.120;2023-12-20T16:04:57;6.70;68.97
66373;SHT30;53168;51.146;17.120;2023-12-20T16:07:31;6.69;68.90
66373;SHT30;53168;51.146;17.120;2023-12-20T16:10:06;6.70;68.81
66373;SHT30;53168;51.146;17.120;2023-12-20T16:12:40;6.69;68.61
66373;SHT30;53168;51.146;17.120;2023-12-20T16:15:16;6.69;68.61
66373;SHT30;53168;51.146;17.120;2023-12-20T16:17:49;6.69;68.49
66373;SHT30;53168;51.146;17.120;2023-12-20T16:20:24;6.71;68.28
66373;SHT30;53168;51.146;17.120;2023-12-20T16:22:57;6.74;68.16
66373;SHT30;53168;51.146;17.120;2023-12-20T16:25:32;6.74;68.67
66373;SHT30;53168;51.146;17.120;2023-12-20T16:28:08;6.73;68.88
66373;SHT30;53168;51.146;17.120;2023-12-20T16:30:43;6.73;68.76
66373;SHT30;53168;51.146;17.120;2023-12-20T16:33:19;6.75;68.63
66373;SHT30;53168;51.146;17.120;2023-12-20T16:35:56;6.77;68.58
66373;SHT30;53168;51.146;17.120;2023-12-20T16:38:30;6.79;68.32
66373;SHT30;53168;51.146;17.120;2023-12-20T16:41:05;6.80;68.15
66373;SHT30;53168;51.146;17.120;2023-12-20T16:43:38;6.82;68.03
66373;SHT30;53168;51.146;17.120;2023-12-20T16:46:12;6.81;68.23
66373;SHT30;53168;51.146;17.120;2023-12-20T16:48:47;6.80;68.11
66373;SHT30;53168;51.146;17.120;2023-12-20T16:51:21;6.80;68.52
66373;SHT30;53168;51.146;17.120;2023-12-20T16:53:58;6.78;68.42